Latest Coastal Weather Observations for Laverton

IDV60701

Issued at 12:21 am EDT Saturday 28 March 2015 (issued every 10 minutes, with the page automatically refreshed every 10 minutes)

About coastal observations | Map of coastal stations | Coastal observations for VIC | Marine services | Other Formats
Station Details ID: 087031 Name: LAVERTON RAAF Lat: -37.86 Lon: 144.76 Height: 20.1 m
Data from the previous 72 hours. | See also: Recent months at Laverton
Date/Time
EDT
Temp

°C
Wind Pressure Rain
since 9am
mm
Weather Cloud Vis
km
Sea
Height
m
Swell
Dir
 
Speed
knots
Gust
knots
hPa Trend Height
m
Period
s
Dir
28/12:00am 13.8 WSW 11 15 1025.0 - 0.0 - Mostly cloudy 49 - - - -
 
Date/Time
EDT
Temp

°C
Wind Pressure Rain
since 9am
mm
Weather Cloud Vis
km
Sea
Height
m
Swell
Dir
 
Speed
knots
Gust
knots
hPa Trend Height
m
Period
s
Dir
27/11:30pm 14.3 W 9 12 1025.0 - 0.0 - Cloudy 10 - - - -
27/11:00pm 14.5 WSW 9 12 1025.1 - 0.0 - Cloudy 10 - - - -
27/10:30pm 14.8 SW 10 14 1025.1 - 0.0 - Cloudy 10 - - - -
27/10:00pm 15.0 SW 7 10 1025.0 - 0.0 - Partly cloudy 10 - - - -
27/09:30pm 15.1 WSW 6 8 1025.0 - 0.0 - Cloudy 10 - - - -
27/09:00pm 15.2 SW 10 13 1024.8 - 0.0 - Cloudy 10 - - - -
27/08:30pm 15.2 W 6 8 1024.4 - 0.0 - Cloudy 10 - - - -
27/08:00pm 15.0 SW 7 10 1024.3 - 0.0 - Partly cloudy 10 - - - -
27/07:30pm 15.3 SSW 7 9 1023.9 - 0.0 - Partly cloudy 10 - - - -
27/07:00pm 15.8 SSW 9 11 1023.6 - 0.0 - Cloudy 10 - - - -
27/06:30pm 15.9 SSW 11 14 1023.5 - 0.0 - Partly cloudy 10 - - - -
27/06:00pm 16.1 SSW 10 13 1023.2 - 0.0 - Cloudy 10 - - - -
27/05:30pm 16.4 SSW 11 17 1023.0 - 0.0 - Cloudy 10 - - - -
27/05:00pm 16.7 SW 13 17 1023.1 - 0.0 - Cloudy 10 - - - -
27/04:30pm 16.9 WSW 14 19 1023.1 - 0.0 - Cloudy 10 - - - -
27/04:00pm 17.1 SW 15 20 1023.1 - 0.0 - Cloudy 10 - - - -
27/03:30pm 17.5 WSW 14 20 1023.1 - 0.0 - Cloudy 10 - - - -
27/03:00pm 17.5 SW 15 22 1023.1 - 0.0 - Cloudy 10 - - - -
27/02:30pm 17.9 WSW 15 21 1023.3 - 0.0 - Partly cloudy 10 - - - -
27/02:00pm 18.1 SW 17 22 1023.5 - 0.0 - Partly cloudy 10 - - - -
27/01:31pm 16.9 SW 17 27 1023.5 - 0.0 - Partly cloudy 10 - - - -
27/01:30pm 16.8 WSW 18 27 1023.6 - 0.0 - Partly cloudy 10 - - - -
27/01:26pm 16.8 WSW 17 27 1023.4 - 0.0 - Partly cloudy 10 - - - -
27/01:00pm 17.0 WSW 17 24 1023.6 - 0.0 - Partly cloudy 10 - - - -
27/12:35pm 17.3 WSW 15 25 1023.7 - 0.0 - Partly cloudy 10 - - - -
27/12:30pm 18.0 WSW 17 26 1023.8 - 0.0 - Partly cloudy 10 - - - -
27/12:00pm 17.4 SW 18 25 1023.8 - 0.0 - Partly cloudy 10 - - - -
27/11:30am 16.3 WSW 16 22 1023.8 - 0.0 - Partly cloudy 10 - - - -
27/11:00am 15.7 WSW 17 22 1023.9 - 0.0 - Partly cloudy 10 - - - -
27/10:50am 15.8 WSW 16 26 1023.8 - 0.0 - Partly cloudy 10 - - - -
27/10:30am 15.3 WSW 16 25 1023.6 - 0.0 - Partly cloudy 10 - - - -
27/10:00am 15.2 WSW 17 23 1023.2 - 0.0 - Partly cloudy 10 - - - -
27/09:30am 14.4 W 17 24 1022.9 - 0.0 - - 10 - - - -
27/09:00am 13.8 W 16 24 1022.7 - 0.0 - Mostly clear 10 - - - -
27/08:30am 13.0 W 13 19 1022.4 - 0.0 - - 10 - - - -
27/08:00am 12.6 W 15 22 1021.8 - 0.0 - Partly cloudy 10 - - - -
27/07:30am 12.6 W 13 18 1021.4 - 0.0 - Partly cloudy 10 - - - -
27/07:00am 12.9 W 14 23 1021.0 - 0.0 - Partly cloudy 10 - - - -
27/06:30am 13.0 W 14 20 1020.9 - 0.0 - Partly cloudy 10 - - - -
27/06:00am 12.9 W 13 23 1020.3 - 0.0 - Partly cloudy 10 - - - -
27/05:30am 13.1 W 14 20 1020.1 - 0.0 - Partly cloudy 10 - - - -
27/05:00am 12.6 W 13 18 1020.0 - 0.0 - Partly cloudy 10 - - - -
27/04:30am 12.7 W 13 18 1019.9 - 0.0 - - 10 - - - -
27/04:00am 12.8 W 12 19 1019.6 - 0.0 - Partly cloudy 10 - - - -
27/03:30am 12.9 W 14 18 1019.6 - 0.0 - Partly cloudy 10 - - - -
27/03:00am 13.0 W 13 18 1019.6 - 0.0 - Mostly clear 10 - - - -
27/02:30am 13.2 W 14 22 1019.3 - 0.0 - Partly cloudy 10 - - - -
27/02:00am 13.8 W 17 25 1019.2 - 0.0 - Partly cloudy 10 - - - -
27/01:50am 13.8 W 15 25 1019.2 - 0.0 - Partly cloudy 10 - - - -
27/01:30am 13.6 WNW 14 19 1019.0 - 0.0 - Partly cloudy 10 - - - -
27/01:00am 13.2 WNW 13 18 1019.1 - 0.0 - Partly cloudy 10 - - - -
27/12:30am 13.1 W 14 21 1019.1 - 0.0 - - 10 - - - -
27/12:00am 13.3 WNW 12 17 1018.9 - 0.0 - Cloudy 10 - - - -
 
Date/Time
EDT
Temp

°C
Wind Pressure Rain
since 9am
mm
Weather Cloud Vis
km
Sea
Height
m
Swell
Dir
 
Speed
knots
Gust
knots
hPa Trend Height
m
Period
s
Dir
26/11:30pm 13.2 WNW 13 17 1018.8 - 0.0 - Partly cloudy 10 - - - -
26/11:00pm 13.2 WNW 14 20 1018.7 - 0.0 - Partly cloudy 10 - - - -
26/10:30pm 13.7 WNW 13 19 1018.6 - 0.0 - Partly cloudy 10 - - - -
26/10:00pm 13.6 WNW 16 23 1018.5 - 0.0 - Partly cloudy 10 - - - -
26/09:30pm 13.9 WNW 16 23 1018.3 - 0.0 - Partly cloudy 10 - - - -
26/09:00pm 13.9 WNW 15 21 1018.0 - 0.0 - Cloudy 10 - - - -
26/08:30pm 13.5 WNW 16 22 1017.6 - 0.0 - Partly cloudy 10 - - - -
26/08:00pm 13.6 WNW 20 27 1017.0 - 0.0 - Partly cloudy 10 - - - -
26/07:34pm 13.7 NW 22 32 1016.8 - 0.0 - Partly cloudy 10 - - - -
26/07:30pm 13.7 NW 24 32 1016.6 - 0.0 - Partly cloudy 10 - - - -
26/07:00pm 14.4 NW 25 32 1016.4 - 0.0 - Partly cloudy 10 - - - -
26/06:33pm 14.8 NW 24 36 1016.0 - 0.0 - Partly cloudy 10 - - - -
26/06:30pm 14.9 NW 23 32 1016.1 - 0.0 - Partly cloudy 10 - - - -
26/06:00pm 15.1 WNW 22 33 1016.2 - 0.0 - Cloudy 10 - - - -
26/05:32pm 15.9 WNW 23 33 1015.9 - 0.0 - Partly cloudy 10 - - - -
26/05:30pm 15.9 WNW 24 33 1015.9 - 0.0 - Partly cloudy 10 - - - -
26/05:00pm 15.7 WNW 22 32 1015.6 - 0.0 - Cloudy 10 - - - -
26/04:30pm 16.8 WNW 21 31 1015.7 - 0.0 - Cloudy 10 - - - -
26/04:00pm 17.1 WNW 20 30 1015.8 - 0.0 - Cloudy 10 - - - -
26/03:32pm 17.7 NW 21 31 1015.7 - 0.0 - Partly cloudy 10 - - - -
26/03:30pm 17.8 NW 20 28 1015.9 - 0.0 - Partly cloudy 10 - - - -
26/03:19pm 18.0 NW 19 29 1015.8 - 0.0 - Partly cloudy 10 - - - -
26/03:00pm 17.5 NW 22 30 1016.1 - 0.0 - Cloudy 10 - - - -
26/02:35pm 18.1 NW 20 32 1016.4 - 0.0 - Partly cloudy 10 - - - -
26/02:30pm 18.0 WNW 22 29 1016.5 - 0.0 - Partly cloudy 10 - - - -
26/02:05pm 17.1 WNW 19 29 1016.9 - 0.0 - Partly cloudy 10 - - - -
26/02:00pm 17.4 NW 20 29 1017.0 - 0.0 - Partly cloudy 10 - - - -
26/01:30pm 17.4 WNW 17 25 1017.0 - 0.0 - Partly cloudy 10 - - - -
26/01:00pm 18.0 NW 21 29 1017.4 - 0.0 - Partly cloudy 10 - - - -
26/12:45pm 17.2 NW 19 31 1017.4 - 0.0 - Partly cloudy 10 - - - -
26/12:30pm 17.0 WNW 18 24 1017.7 - 0.0 - Partly cloudy 10 - - - -
26/12:00pm 17.1 WNW 17 26 1017.8 - 0.0 - Partly cloudy 10 - - - -
26/11:30am 16.6 WNW 17 24 1018.0 - 0.0 - Partly cloudy 10 - - - -
26/11:00am 15.4 NW 18 24 1018.0 - 0.0 - Partly cloudy 10 - - - -
26/10:30am 14.4 WNW 16 23 1018.0 - 0.0 - Partly cloudy 10 - - - -
26/10:00am 13.9 WNW 16 23 1017.9 - 0.0 - - 10 - - - -
26/09:30am 12.9 WNW 13 19 1017.9 - 0.0 - - 10 - - - -
26/09:00am 12.0 WNW 10 15 1017.7 - 0.2 - - 10 - - - -
26/08:30am 11.0 NW 8 12 1017.4 - 0.2 - - 10 - - - -
26/08:00am 9.7 NW 8 14 1017.0 - 0.2 - - 10 - - - -
26/07:30am 9.2 NW 10 14 1016.5 - 0.2 - - 10 - - - -
26/07:00am 9.0 NW 10 12 1016.1 - 0.2 - - 10 - - - -
26/06:30am 8.9 NW 11 14 1015.8 - 0.2 - - 10 - - - -
26/06:00am 8.7 NW 9 12 1015.6 - 0.2 - - 10 - - - -
26/05:30am 8.5 NW 8 10 1015.7 - 0.2 - - 10 - - - -
26/05:00am 8.8 NW 7 9 1015.5 - 0.2 - - 10 - - - -
26/04:30am 9.6 NW 8 11 1015.3 - 0.2 - Partly cloudy 10 - - - -
26/04:00am 10.0 NW 10 13 1015.1 - 0.2 - Partly cloudy 10 - - - -
26/03:30am 10.3 NW 12 17 1015.3 - 0.2 - Partly cloudy 10 - - - -
26/03:00am 11.4 NW 12 17 1015.3 - 0.2 - Cloudy 10 - - - -
26/02:30am 11.8 WNW 14 19 1015.6 - 0.2 - Cloudy 10 - - - -
26/02:00am 11.6 W 11 18 1015.9 - 0.2 - Partly cloudy 10 - - - -
26/01:30am 11.6 WSW 15 23 1015.9 - 0.2 - Cloudy 10 - - - -
26/01:00am 11.7 WSW 17 27 1015.4 - 0.2 - Partly cloudy 10 - - - -
26/12:53am 11.9 WSW 17 27 1015.4 - 0.2 - Partly cloudy 10 - - - -
26/12:30am 13.0 WSW 18 25 1015.1 - 0.2 - Cloudy 10 - - - -
26/12:23am 14.6 NNW 11 24 1014.9 - 0.2 - Cloudy 10 - - - -
26/12:00am 14.7 NNW 8 12 1013.9 - 0.2 - Mostly cloudy 10 - - - -
 
Date/Time
EDT
Temp

°C
Wind Pressure Rain
since 9am
mm
Weather Cloud Vis
km
Sea
Height
m
Swell
Dir
 
Speed
knots
Gust
knots
hPa Trend Height
m
Period
s
Dir
25/11:30pm 13.3 NNE 6 9 1013.6 - 0.2 - - 10 - - - -
25/11:00pm 13.4 N 7 10 1013.8 - 0.2 - - 10 - - - -
25/10:30pm 14.2 N 6 9 1014.3 - 0.2 - - 10 - - - -
25/10:00pm 13.4 N 5 6 1014.4 - 0.2 - - 10 - - - -
25/09:30pm 12.6 NNW 5 6 1014.6 - 0.2 - - 10 - - - -
25/09:00pm 13.0 W 6 7 1014.5 - 0.2 - - 10 - - - -
25/08:30pm 13.3 ESE 3 5 1014.0 - 0.2 - - 10 - - - -
25/08:00pm 15.2 ESE 3 4 1013.6 - 0.2 - - 10 - - - -
25/07:30pm 16.3 SSE 5 6 1013.5 - 0.2 - - 10 - - - -
25/07:00pm 17.3 SSE 5 7 1013.2 - 0.2 - - 10 - - - -
25/06:30pm 17.8 SSE 6 9 1012.9 - 0.2 - - 10 - - - -
25/06:00pm 18.4 SSE 8 11 1012.9 - 0.2 - Mostly clear 10 - - - -
25/05:30pm 18.8 SSE 8 13 1012.8 - 0.2 - - 10 - - - -
25/05:00pm 18.3 SSE 8 11 1012.8 - 0.2 - - 10 - - - -
25/04:30pm 18.9 SSE 9 13 1013.4 - 0.2 - Partly cloudy 10 - - - -
25/04:00pm 19.0 SSE 10 13 1013.5 - 0.2 - Partly cloudy 10 - - - -
25/03:30pm 19.3 SSE 9 12 1013.7 - 0.2 - - 10 - - - -
25/03:00pm 19.0 ESE 7 9 1014.1 - 0.2 - Mostly clear 10 - - - -
25/02:30pm 18.5 ESE 6 9 1014.6 - 0.2 - - 10 - - - -
25/02:00pm 18.3 E 5 10 1015.2 - 0.2 - - 10 - - - -
25/01:30pm 18.9 N 5 11 1016.0 - 0.2 - - 10 - - - -
25/01:00pm 17.1 E 5 8 1016.6 - 0.2 - - 10 - - - -
25/12:30pm 17.4 SSE 3 6 1017.1 - 0.2 - - 10 - - - -
25/12:00pm 16.4 NW 5 8 1017.7 - 0.2 Recent precip. - 10 - - - -
25/11:30am 16.4 ENE 5 8 1017.7 - 0.0 - - 10 - - - -
25/11:00am 15.1 N 4 6 1018.2 - 0.0 - - 10 - - - -
25/10:30am 14.6 W 4 5 1018.5 - 0.0 - - 10 - - - -
25/10:00am 14.1 WNW 6 8 1018.9 - 0.0 - Partly cloudy 10 - - - -
25/09:30am 13.1 W 7 9 1018.9 - 0.0 - Cloudy 10 - - - -
25/09:00am 12.5 W 6 9 1018.7 - 0.0 - Partly cloudy 10 - - - -
25/08:30am 12.4 W 6 7 1018.7 - 0.0 - Cloudy 10 - - - -
25/08:00am 12.2 W 6 8 1018.7 - 0.0 - Partly cloudy 10 - - - -
25/07:30am 12.3 WSW 6 8 1018.7 - 0.0 - Partly cloudy 10 - - - -
25/07:00am 12.5 WSW 7 10 1018.5 - 0.0 - Cloudy 10 - - - -
25/06:30am 12.4 WSW 7 10 1018.2 - 0.0 - Cloudy 10 - - - -
25/06:00am 12.3 WSW 7 9 1018.2 - 0.0 - Mostly cloudy 10 - - - -
25/05:30am 12.3 W 8 11 1018.3 - 0.0 - Cloudy 10 - - - -
25/05:00am 12.5 WSW 8 11 1018.3 - 0.0 - Cloudy 10 - - - -
25/04:30am 12.5 WSW 7 10 1018.3 - 0.0 - Cloudy 10 - - - -
25/04:00am 12.7 WSW 9 11 1018.6 - 0.0 - Cloudy 10 - - - -
25/03:30am 12.8 WSW 8 12 1018.7 - 0.0 - Cloudy 10 - - - -
25/03:00am 13.1 WSW 7 11 1018.8 - 0.0 - Cloudy 10 - - - -
25/02:30am 13.3 WSW 7 10 1018.8 - 0.0 - Cloudy 10 - - - -
25/02:00am 13.5 WSW 6 9 1019.3 - 0.0 - Cloudy 10 - - - -
25/01:30am 13.6 WSW 5 7 1019.2 - 0.0 - Cloudy 10 - - - -
25/01:00am 13.5 SW 5 6 1019.0 - 0.0 - Cloudy 10 - - - -
25/12:30am 13.7 SW 7 9 1019.3 - 0.0 - Cloudy 10 - - - -

Other Formats:

Comma delimited format used in spreadsheet applications
http://www.bom.gov.au/fwo/IDV60701/IDV60701.94865.axf

JavaScript Object Notation format (JSON) in row-major order
http://www.bom.gov.au/fwo/IDV60701/IDV60701.94865.json